Time;durP1;ratioP1;P1;durP2;ratioP2;P2;SDS_P1;SDS_P2;PMS_P1;PMS_P2;Temp;Humidity;BMP_temperature;BMP_pressure;BME280_temperature;BME280_humidity;BME280_pressure;Samples;Min_cycle;Max_cycle;Signal;HPM_P1;HPM_P2
2023/03/11 00:02:10;;;;;;;;;;;;;;;;;;5124132;27;19930;-58
2023/03/11 00:04:36;;;;;;;;;;;;;;;;;;5126388;27;19976;-58
2023/03/11 00:07:02;;;;;;;;;;;;;;;;;;5126786;27;20289;-58
2023/03/11 00:09:28;;;;;;;;;;;;;;;;;;5126608;27;19919;-57
2023/03/11 00:11:54;;;;;;;;;;;;;;;;;;5126682;27;19931;-52
2023/03/11 00:14:21;;;;;;;;;;;;;;;;;;5126336;27;20364;-58
2023/03/11 00:16:47;;;;;;;;;;;;;;;;;;5127095;27;19925;-57
2023/03/11 00:19:12;;;;;;;;;;;;;;;;;;5125848;27;19999;-58
2023/03/11 00:21:38;;;;;;;;;;;;;;;;;;5126496;27;20018;-58
2023/03/11 00:24:04;;;;;;;;;;;;;;;;;;5126482;27;20002;-57
2023/03/11 00:26:30;;;;;;;;;;;;;;;;;;5126614;27;19930;-58
2023/03/11 00:28:57;;;;;;;;;;;;;;;;;;5126312;27;19919;-57
2023/03/11 00:31:25;;;;;;;;;;;;;;;;;;5126091;27;19924;-58
2023/03/11 00:33:51;;;;;;;;;;;;;;;;;;5126478;27;20368;-58
2023/03/11 00:36:17;;;;;;;;;;;;;;;;;;5126219;27;19949;-58
2023/03/11 00:38:43;;;;;;;;;;;;;;;;;;5111865;27;19919;-58
2023/03/11 00:41:09;;;;;;;;;;;;;;;;;;5126107;27;19923;-58
2023/03/11 00:43:35;;;;;;;;;;;;;;;;;;5126503;27;20439;-58
2023/03/11 00:46:03;;;;;;;;;;;;;;;;;;5126422;27;19974;-57
2023/03/11 00:48:29;;;;;;;;;;;;;;;;;;5124765;27;20277;-57
2023/03/11 00:50:55;;;;;;;;;;;;;;;;;;5126424;27;20348;-57
2023/03/11 00:53:21;;;;;;;;;;;;;;;;;;5126230;27;20096;-57
2023/03/11 00:55:47;;;;;;;;;;;;;;;;;;5126062;27;20026;-57
2023/03/11 00:58:13;;;;;;;;;;;;;;;;;;5126167;27;20021;-57
2023/03/11 01:00:39;;;;;;;;;;;;;;;;;;5126075;27;19951;-57
2023/03/11 01:03:05;;;;;;;;;;;;;;;;;;5124915;27;19997;-57
2023/03/11 01:05:31;;;;;;;;;;;;;;;;;;5126286;28;19930;-57
2023/03/11 01:07:57;;;;;;;;;;;;;;;;;;5125655;28;19947;-57
2023/03/11 01:10:23;;;;;;;;;;;;;;;;;;5125970;28;20540;-52
2023/03/11 01:12:49;;;;;;;;;;;;;;;;;;5126043;28;19923;-57
2023/03/11 01:15:15;;;;;;;;;;;;;;;;;;5126062;28;19927;-58
2023/03/11 01:17:41;;;;;;;;;;;;;;;;;;5125126;28;19931;-57
2023/03/11 01:20:09;;;;;;;;;;;;;;;;;;5125794;28;19927;-57
2023/03/11 01:22:35;;;;;;;;;;;;;;;;;;5126198;28;19928;-57
2023/03/11 01:25:01;;;;;;;;;;;;;;;;;;5125661;28;19930;-57
2023/03/11 01:27:27;;;;;;;;;;;;;;;;;;5106491;28;20380;-57
2023/03/11 01:29:53;;;;;;;;;;;;;;;;;;5126191;28;20003;-57
2023/03/11 01:32:19;;;;;;;;;;;;;;;;;;5125727;28;20018;-57
2023/03/11 01:34:45;;;;;;;;;;;;;;;;;;5125314;28;20369;-58
2023/03/11 01:37:11;;;;;;;;;;;;;;;;;;5121469;28;19924;-57
2023/03/11 01:39:37;;;;;;;;;;;;;;;;;;5115819;28;19923;-57
2023/03/11 01:42:03;;;;;;;;;;;;;;;;;;5125546;28;19984;-58
2023/03/11 01:44:29;;;;;;;;;;;;;;;;;;5127654;27;19923;-57
2023/03/11 01:46:58;;;;;;;;;;;;;;;;;;5129214;27;20357;-58
2023/03/11 01:49:24;;;;;;;;;;;;;;;;;;5129292;27;19950;-57
2023/03/11 01:51:50;;;;;;;;;;;;;;;;;;5129702;27;19924;-57
2023/03/11 01:54:16;;;;;;;;;;;;;;;;;;5110562;27;19919;-57
2023/03/11 01:56:43;;;;;;;;;;;;;;;;;;5129923;27;19923;-58
2023/03/11 01:59:08;;;;;;;;;;;;;;;;;;5128838;27;20401;-57
2023/03/11 02:01:34;;;;;;;;;;;;;;;;;;5129096;27;20018;-57
2023/03/11 02:04:00;;;;;;;;;;;;;;;;;;5128535;27;19927;-57
2023/03/11 02:06:26;;;;;;;;;;;;;;;;;;5128563;27;20666;-58
2023/03/11 02:08:52;;;;;;;;;;;;;;;;;;5129566;27;19923;-57
2023/03/11 02:11:18;;;;;;;;;;;;;;;;;;5129039;27;19930;-57
2023/03/11 02:13:44;;;;;;;;;;;;;;;;;;5128832;27;20476;-57
2023/03/11 02:16:10;;;;;;;;;;;;;;;;;;5128883;27;20022;-57
2023/03/11 02:18:36;;;;;;;;;;;;;;;;;;5128692;27;20075;-58
2023/03/11 02:21:02;;;;;;;;;;;;;;;;;;5128853;27;20089;-57
2023/03/11 02:23:28;;;;;;;;;;;;;;;;;;5128574;27;19948;-57
2023/03/11 02:25:54;;;;;;;;;;;;;;;;;;5129158;27;19938;-57
2023/03/11 02:28:20;;;;;;;;;;;;;;;;;;5129049;27;20668;-58
2023/03/11 02:30:46;;;;;;;;;;;;;;;;;;5129038;27;19935;-58
2023/03/11 02:33:13;;;;;;;;;;;;;;;;;;5128030;27;20391;-57
2023/03/11 02:35:39;;;;;;;;;;;;;;;;;;5128975;27;19930;-58
2023/03/11 02:38:05;;;;;;;;;;;;;;;;;;5116417;27;19924;-57
2023/03/11 02:40:31;;;;;;;;;;;;;;;;;;5126343;27;20009;-57
2023/03/11 02:42:57;;;;;;;;;;;;;;;;;;5128655;27;19923;-57
2023/03/11 02:45:23;;;;;;;;;;;;;;;;;;5128051;27;19930;-57
2023/03/11 02:47:49;;;;;;;;;;;;;;;;;;5127978;27;20111;-57
2023/03/11 02:50:15;;;;;;;;;;;;;;;;;;5128603;27;20055;-57
2023/03/11 02:52:41;;;;;;;;;;;;;;;;;;5128219;27;19927;-58
2023/03/11 02:55:07;;;;;;;;;;;;;;;;;;5127874;27;19919;-58
2023/03/11 02:57:33;;;;;;;;;;;;;;;;;;5128400;27;19924;-58
2023/03/11 03:00:05;;;;;;;;;;;;;;;;;;5128311;27;20006;-58
2023/03/11 03:02:31;;;;;;;;;;;;;;;;;;5126647;27;19927;-59
2023/03/11 03:04:57;;;;;;;;;;;;;;;;;;5128310;27;19968;-59
2023/03/11 03:07:23;;;;;;;;;;;;;;;;;;5128414;27;20360;-59
2023/03/11 03:09:49;;;;;;;;;;;;;;;;;;5128438;27;19945;-58
2023/03/11 03:12:15;;;;;;;;;;;;;;;;;;5109474;27;20161;-59
2023/03/11 03:14:41;;;;;;;;;;;;;;;;;;5127218;27;19923;-58
2023/03/11 03:17:07;;;;;;;;;;;;;;;;;;5126862;27;19923;-59
2023/03/11 03:19:33;;;;;;;;;;;;;;;;;;5127014;27;20361;-59
2023/03/11 03:21:59;;;;;;;;;;;;;;;;;;5127133;27;20005;-59
2023/03/11 03:24:25;;;;;;;;;;;;;;;;;;5115246;27;20456;-58
2023/03/11 03:26:51;;;;;;;;;;;;;;;;;;5107270;28;19924;-59
2023/03/11 03:29:17;;;;;;;;;;;;;;;;;;5115161;27;19928;-58
2023/03/11 03:31:43;;;;;;;;;;;;;;;;;;5127681;27;20297;-59
2023/03/11 03:34:09;;;;;;;;;;;;;;;;;;5120823;27;19924;-58
2023/03/11 03:36:35;;;;;;;;;;;;;;;;;;5107793;27;20424;-59
2023/03/11 03:39:02;;;;;;;;;;;;;;;;;;5101456;28;19994;-59
2023/03/11 03:41:28;;;;;;;;;;;;;;;;;;5120179;27;20022;-58
2023/03/11 03:43:54;;;;;;;;;;;;;;;;;;5127642;27;20325;-59
2023/03/11 03:46:20;;;;;;;;;;;;;;;;;;5127440;27;19927;-58
2023/03/11 03:48:46;;;;;;;;;;;;;;;;;;5090922;28;20401;-58
2023/03/11 03:51:12;;;;;;;;;;;;;;;;;;5115708;27;19924;-58
2023/03/11 03:53:38;;;;;;;;;;;;;;;;;;5127288;27;19927;-58
2023/03/11 03:56:04;;;;;;;;;;;;;;;;;;5126805;27;20335;-57
2023/03/11 03:58:30;;;;;;;;;;;;;;;;;;5126744;27;20498;-59
2023/03/11 04:00:56;;;;;;;;;;;;;;;;;;5126750;27;19949;-58
2023/03/11 04:03:22;;;;;;;;;;;;;;;;;;5126194;27;20340;-58
2023/03/11 04:05:48;;;;;;;;;;;;;;;;;;5112694;27;20507;-58
2023/03/11 04:08:14;;;;;;;;;;;;;;;;;;5126109;27;19923;-58
2023/03/11 04:10:40;;;;;;;;;;;;;;;;;;5126720;27;19931;-58
2023/03/11 04:13:06;;;;;;;;;;;;;;;;;;5126433;27;19924;-58
2023/03/11 04:15:32;;;;;;;;;;;;;;;;;;5126546;27;19928;-59
2023/03/11 04:17:58;;;;;;;;;;;;;;;;;;5124657;27;20026;-59
2023/03/11 04:20:24;;;;;;;;;;;;;;;;;;5127106;27;19931;-58
2023/03/11 04:22:50;;;;;;;;;;;;;;;;;;5126598;27;20584;-58
2023/03/11 04:25:16;;;;;;;;;;;;;;;;;;5107912;27;19923;-58
2023/03/11 04:27:44;;;;;;;;;;;;;;;;;;5126634;27;19949;-59
2023/03/11 04:30:10;;;;;;;;;;;;;;;;;;5126442;27;20014;-58
2023/03/11 04:32:36;;;;;;;;;;;;;;;;;;5125651;27;19930;-58
2023/03/11 04:35:02;;;;;;;;;;;;;;;;;;5126145;27;19931;-58
2023/03/11 04:37:28;;;;;;;;;;;;;;;;;;5126511;27;20002;-59
2023/03/11 04:39:54;;;;;;;;;;;;;;;;;;5126730;27;20036;-57
2023/03/11 04:42:20;;;;;;;;;;;;;;;;;;5126525;27;20329;-59
2023/03/11 04:44:46;;;;;;;;;;;;;;;;;;5126483;27;20456;-58
2023/03/11 04:47:13;;;;;;;;;;;;;;;;;;5125364;27;19924;-58
2023/03/11 04:49:38;;;;;;;;;;;;;;;;;;5126214;27;20467;-58
2023/03/11 04:52:04;;;;;;;;;;;;;;;;;;5126049;27;19923;-58
2023/03/11 04:54:31;;;;;;;;;;;;;;;;;;5126088;27;19934;-59
2023/03/11 04:56:57;;;;;;;;;;;;;;;;;;5125993;27;20648;-59
2023/03/11 04:59:23;;;;;;;;;;;;;;;;;;5126572;27;19923;-59
2023/03/11 05:01:49;;;;;;;;;;;;;;;;;;5124921;27;19927;-59
2023/03/11 05:04:15;;;;;;;;;;;;;;;;;;5125982;27;19981;-59
2023/03/11 05:06:41;;;;;;;;;;;;;;;;;;5126357;28;19927;-60
2023/03/11 05:09:07;;;;;;;;;;;;;;;;;;5125880;28;20334;-59
2023/03/11 05:11:33;;;;;;;;;;;;;;;;;;5126261;28;19924;-59
2023/03/11 05:13:59;;;;;;;;;;;;;;;;;;5125024;28;19986;-60
2023/03/11 05:16:25;;;;;;;;;;;;;;;;;;5125956;28;19934;-58
2023/03/11 05:18:51;;;;;;;;;;;;;;;;;;5128261;27;19923;-57
2023/03/11 05:21:17;;;;;;;;;;;;;;;;;;5129828;27;19984;-56
2023/03/11 05:23:44;;;;;;;;;;;;;;;;;;5130546;27;19946;-57
2023/03/11 05:26:10;;;;;;;;;;;;;;;;;;5130008;27;19927;-56
2023/03/11 05:28:36;;;;;;;;;;;;;;;;;;5129900;27;19923;-56
2023/03/11 05:31:02;;;;;;;;;;;;;;;;;;5129908;27;19931;-57
2023/03/11 05:33:34;;;;;;;;;;;;;;;;;;5128732;27;19923;-56
2023/03/11 05:36:00;;;;;;;;;;;;;;;;;;5129979;27;19946;-57
2023/03/11 05:38:26;;;;;;;;;;;;;;;;;;5129867;27;20420;-57
2023/03/11 05:40:52;;;;;;;;;;;;;;;;;;5129791;27;19924;-57
2023/03/11 05:43:18;;;;;;;;;;;;;;;;;;5114834;27;19950;-56
2023/03/11 05:45:44;;;;;;;;;;;;;;;;;;5112738;27;20285;-57
2023/03/11 05:48:10;;;;;;;;;;;;;;;;;;5116522;27;19927;-56
2023/03/11 05:50:36;;;;;;;;;;;;;;;;;;5114281;27;19931;-56
2023/03/11 05:53:02;;;;;;;;;;;;;;;;;;5120616;27;19923;-56
2023/03/11 05:55:28;;;;;;;;;;;;;;;;;;5123845;27;19971;-56
2023/03/11 05:57:54;;;;;;;;;;;;;;;;;;5099582;27;19927;-55
2023/03/11 06:00:20;;;;;;;;;;;;;;;;;;5119856;27;20295;-56
2023/03/11 06:02:46;;;;;;;;;;;;;;;;;;5119121;27;19927;-56
2023/03/11 06:05:12;;;;;;;;;;;;;;;;;;5123385;27;20330;-57
2023/03/11 06:07:38;;;;;;;;;;;;;;;;;;5122905;27;19923;-57
2023/03/11 06:10:04;;;;;;;;;;;;;;;;;;5126223;27;19923;-57
2023/03/11 06:12:31;;;;;;;;;;;;;;;;;;5125839;27;19927;-58
2023/03/11 06:14:57;;;;;;;;;;;;;;;;;;5129158;27;20261;-57
2023/03/11 06:17:23;;;;;;;;;;;;;;;;;;5112445;27;20306;-58
2023/03/11 06:19:49;;;;;;;;;;;;;;;;;;5110777;27;19930;-58
2023/03/11 06:22:15;;;;;;;;;;;;;;;;;;5115951;27;19928;-57
2023/03/11 06:24:41;;;;;;;;;;;;;;;;;;5113038;27;20400;-58
2023/03/11 06:27:08;;;;;;;;;;;;;;;;;;5118334;27;19966;-58
2023/03/11 06:29:34;;;;;;;;;;;;;;;;;;5112389;27;19920;-58
2023/03/11 06:32:00;;;;;;;;;;;;;;;;;;5120703;27;19923;-58
2023/03/11 06:34:26;;;;;;;;;;;;;;;;;;5119919;27;20473;-58
2023/03/11 06:36:53;;;;;;;;;;;;;;;;;;5114264;27;20381;-58
2023/03/11 06:39:19;;;;;;;;;;;;;;;;;;5116894;27;19924;-58
2023/03/11 06:41:45;;;;;;;;;;;;;;;;;;5113534;27;19939;-59
2023/03/11 06:44:11;;;;;;;;;;;;;;;;;;5125970;27;20391;-60
2023/03/11 06:46:37;;;;;;;;;;;;;;;;;;5121929;27;19920;-59
2023/03/11 06:49:03;;;;;;;;;;;;;;;;;;5117786;27;19924;-53
2023/03/11 06:51:29;;;;;;;;;;;;;;;;;;5137293;27;20399;-60
2023/03/11 06:53:55;;;;;;;;;;;;;;;;;;5130801;27;19983;-60
2023/03/11 06:56:21;;;;;;;;;;;;;;;;;;5145673;27;19997;-59
2023/03/11 06:58:47;;;;;;;;;;;;;;;;;;5129127;27;20015;-59
2023/03/11 07:01:13;;;;;;;;;;;;;;;;;;5139240;27;20402;-61
2023/03/11 07:03:39;;;;;;;;;;;;;;;;;;5119598;27;19924;-60
2023/03/11 07:06:06;;;;;;;;;;;;;;;;;;5113942;27;19931;-61
2023/03/11 07:08:32;;;;;;;;;;;;;;;;;;5111087;27;20001;-59
2023/03/11 07:10:58;;;;;;;;;;;;;;;;;;5109842;27;19923;-59
2023/03/11 07:13:24;;;;;;;;;;;;;;;;;;5107871;28;19928;-59
2023/03/11 07:15:50;;;;;;;;;;;;;;;;;;5113240;27;19931;-59
2023/03/11 07:18:16;;;;;;;;;;;;;;;;;;5107124;27;19924;-60
2023/03/11 07:20:42;;;;;;;;;;;;;;;;;;5107922;28;20424;-59
2023/03/11 07:23:08;;;;;;;;;;;;;;;;;;5111348;27;19931;-59
2023/03/11 07:25:34;;;;;;;;;;;;;;;;;;5113493;27;19931;-60
2023/03/11 07:28:00;;;;;;;;;;;;;;;;;;5107795;28;19924;-60
2023/03/11 07:30:26;;;;;;;;;;;;;;;;;;5107604;28;19920;-59
2023/03/11 07:32:52;;;;;;;;;;;;;;;;;;5119039;27;19930;-61
2023/03/11 07:35:18;;;;;;;;;;;;;;;;;;5124793;27;20001;-61
2023/03/11 07:37:44;;;;;;;;;;;;;;;;;;5127207;27;20031;-61
2023/03/11 07:40:10;;;;;;;;;;;;;;;;;;5120879;27;19924;-60
2023/03/11 07:42:36;;;;;;;;;;;;;;;;;;5139328;27;19923;-60
2023/03/11 07:45:02;;;;;;;;;;;;;;;;;;5144717;27;19931;-60
2023/03/11 07:47:28;;;;;;;;;;;;;;;;;;5144141;27;20386;-59
2023/03/11 07:49:54;;;;;;;;;;;;;;;;;;5146263;27;19967;-59
2023/03/11 07:52:20;;;;;;;;;;;;;;;;;;5144582;27;19923;-59
2023/03/11 07:54:46;;;;;;;;;;;;;;;;;;5138489;27;19929;-59
2023/03/11 07:57:15;;;;;;;;;;;;;;;;;;5142969;27;19923;-60
2023/03/11 07:59:41;;;;;;;;;;;;;;;;;;5145737;27;19934;-59
2023/03/11 08:02:07;;;;;;;;;;;;;;;;;;5144547;27;19931;-59
2023/03/11 08:04:33;;;;;;;;;;;;;;;;;;5141604;27;19980;-59
2023/03/11 08:06:59;;;;;;;;;;;;;;;;;;5145105;27;20373;-58
2023/03/11 08:09:25;;;;;;;;;;;;;;;;;;5146014;27;19930;-59
2023/03/11 08:11:51;;;;;;;;;;;;;;;;;;5145525;27;19930;-58
2023/03/11 08:14:17;;;;;;;;;;;;;;;;;;5145940;27;19923;-58
2023/03/11 08:16:43;;;;;;;;;;;;;;;;;;5144357;27;20288;-58
2023/03/11 08:19:09;;;;;;;;;;;;;;;;;;5144882;27;19930;-58
2023/03/11 08:21:35;;;;;;;;;;;;;;;;;;5144109;27;19976;-58
2023/03/11 08:24:02;;;;;;;;;;;;;;;;;;5144032;27;20404;-58
2023/03/11 08:26:28;;;;;;;;;;;;;;;;;;5140199;27;20339;-58
2023/03/11 08:28:55;;;;;;;;;;;;;;;;;;5143228;27;20365;-52
2023/03/11 08:31:21;;;;;;;;;;;;;;;;;;5143019;27;19927;-58
2023/03/11 08:33:48;;;;;;;;;;;;;;;;;;5124080;27;19927;-58
2023/03/11 08:36:14;;;;;;;;;;;;;;;;;;5138460;27;20679;-58
2023/03/11 08:38:40;;;;;;;;;;;;;;;;;;5144963;27;19931;-58
2023/03/11 08:41:06;;;;;;;;;;;;;;;;;;5137431;27;19942;-58
2023/03/11 08:43:32;;;;;;;;;;;;;;;;;;5142370;27;19923;-58
2023/03/11 08:49:03;;;;;;;;;;;;;;;;;;5136581;27;19944;-58
2023/03/11 08:51:29;;;;;;;;;;;;;;;;;;5135278;27;20299;-58
2023/03/11 08:53:55;;;;;;;;;;;;;;;;;;5135925;27;20365;-53
2023/03/11 08:56:21;;;;;;;;;;;;;;;;;;5139751;27;19932;-58
2023/03/11 08:58:47;;;;;;;;;;;;;;;;;;5134003;27;19949;-58
2023/03/11 09:01:13;;;;;;;;;;;;;;;;;;5142012;27;20014;-58
2023/03/11 09:03:41;;;;;;;;;;;;;;;;;;5137108;27;21269;-58
2023/03/11 09:06:07;;;;;;;;;;;;;;;;;;5145148;27;19931;-58
2023/03/11 09:08:33;;;;;;;;;;;;;;;;;;5141567;27;19923;-58
2023/03/11 09:10:59;;;;;;;;;;;;;;;;;;5145469;27;19975;-58
2023/03/11 09:13:25;;;;;;;;;;;;;;;;;;5140323;27;19929;-57
2023/03/11 09:15:51;;;;;;;;;;;;;;;;;;5145935;27;19923;-58
2023/03/11 09:18:17;;;;;;;;;;;;;;;;;;5144041;27;19955;-58
2023/03/11 09:20:43;;;;;;;;;;;;;;;;;;5143142;27;20693;-58
2023/03/11 09:23:09;;;;;;;;;;;;;;;;;;5122537;27;20381;-58
2023/03/11 09:25:35;;;;;;;;;;;;;;;;;;5114850;28;19971;-58
2023/03/11 09:28:01;;;;;;;;;;;;;;;;;;5126453;28;19964;-58
2023/03/11 09:30:27;;;;;;;;;;;;;;;;;;5115381;28;19924;-58
2023/03/11 09:32:53;;;;;;;;;;;;;;;;;;5116956;28;19928;-58
2023/03/11 09:35:19;;;;;;;;;;;;;;;;;;5108210;28;19935;-58
2023/03/11 09:37:46;;;;;;;;;;;;;;;;;;5109259;28;19932;-58
2023/03/11 09:40:12;;;;;;;;;;;;;;;;;;5120680;28;19920;-58
2023/03/11 09:42:38;;;;;;;;;;;;;;;;;;5107741;28;19946;-58
2023/03/11 09:45:04;;;;;;;;;;;;;;;;;;5105500;28;19931;-57
2023/03/11 09:47:30;;;;;;;;;;;;;;;;;;5114979;28;19923;-58
2023/03/11 09:49:56;;;;;;;;;;;;;;;;;;5121342;28;20372;-58
2023/03/11 09:52:22;;;;;;;;;;;;;;;;;;5110790;28;19968;-58
2023/03/11 09:54:48;;;;;;;;;;;;;;;;;;5113550;28;19924;-58
2023/03/11 09:57:14;;;;;;;;;;;;;;;;;;5106031;28;20420;-58
2023/03/11 09:59:42;;;;;;;;;;;;;;;;;;5114128;28;19924;-58
2023/03/11 10:02:08;;;;;;;;;;;;;;;;;;5104509;28;19946;-58
2023/03/11 10:04:34;;;;;;;;;;;;;;;;;;5088526;27;19924;-58
2023/03/11 10:07:00;;;;;;;;;;;;;;;;;;5112885;27;19931;-58
2023/03/11 10:09:26;;;;;;;;;;;;;;;;;;5113746;27;20427;-57
2023/03/11 10:11:52;;;;;;;;;;;;;;;;;;5116781;27;20021;-58
2023/03/11 10:14:18;;;;;;;;;;;;;;;;;;5137063;27;20021;-59
2023/03/11 10:16:44;;;;;;;;;;;;;;;;;;5142465;27;20372;-57
2023/03/11 10:19:10;;;;;;;;;;;;;;;;;;5135348;27;20055;-58
2023/03/11 10:21:36;;;;;;;;;;;;;;;;;;5145467;27;19929;-58
2023/03/11 10:24:02;;;;;;;;;;;;;;;;;;5138753;27;19953;-58
2023/03/11 10:26:30;;;;;;;;;;;;;;;;;;5138076;27;19930;-57
2023/03/11 10:28:56;;;;;;;;;;;;;;;;;;5140814;27;19927;-58
2023/03/11 10:31:22;;;;;;;;;;;;;;;;;;5130652;27;20044;-58
2023/03/11 10:33:48;;;;;;;;;;;;;;;;;;5138172;27;19930;-58
2023/03/11 10:36:22;;;;;;;;;;;;;;;;;;5128951;27;19924;-58
2023/03/11 10:38:57;;;;;;;;;;;;;;;;;;5146044;27;19923;-58
2023/03/11 10:41:25;;;;;;;;;;;;;;;;;;5148151;27;19933;-58
2023/03/11 10:43:52;;;;;;;;;;;;;;;;;;5144566;27;20368;-58
2023/03/11 10:46:19;;;;;;;;;;;;;;;;;;5147494;27;19931;-58
2023/03/11 10:54:57;;;;;;;;;;;;;;;;;;5144562;27;19923;-57
2023/03/11 11:00:35;;;;;;;;;;;;;;;;;;5142326;27;19971;-58
2023/03/11 11:03:03;;;;;;;;;;;;;;;;;;5146844;27;19931;-58
2023/03/11 11:05:29;;;;;;;;;;;;;;;;;;5143802;27;19927;-58
2023/03/11 11:07:55;;;;;;;;;;;;;;;;;;5129557;27;20014;-57
2023/03/11 11:10:21;;;;;;;;;;;;;;;;;;5143876;27;20014;-59
2023/03/11 11:12:47;;;;;;;;;;;;;;;;;;5145901;27;19927;-58
2023/03/11 11:15:13;;;;;;;;;;;;;;;;;;5127657;27;19930;-58
2023/03/11 11:17:40;;;;;;;;;;;;;;;;;;5127484;27;20416;-58
2023/03/11 11:20:12;;;;;;;;;;;;;;;;;;5128398;27;19923;-59
2023/03/11 11:22:38;;;;;;;;;;;;;;;;;;5099646;27;19958;-58
2023/03/11 11:25:04;;;;;;;;;;;;;;;;;;5121331;27;19977;-58
2023/03/11 11:27:31;;;;;;;;;;;;;;;;;;5127414;27;20430;-59
2023/03/11 11:29:57;;;;;;;;;;;;;;;;;;5128093;27;20060;-58
2023/03/11 11:32:23;;;;;;;;;;;;;;;;;;5126431;27;20022;-58
2023/03/11 11:34:49;;;;;;;;;;;;;;;;;;5131625;27;20004;-59
2023/03/11 11:37:15;;;;;;;;;;;;;;;;;;5146382;27;19927;-58
2023/03/11 11:39:41;;;;;;;;;;;;;;;;;;5146254;27;19930;-59
2023/03/11 11:42:07;;;;;;;;;;;;;;;;;;5143796;27;19923;-58
2023/03/11 11:44:33;;;;;;;;;;;;;;;;;;5142669;27;19923;-58
2023/03/11 11:46:59;;;;;;;;;;;;;;;;;;5139237;27;19949;-58
2023/03/11 11:49:25;;;;;;;;;;;;;;;;;;5125928;27;19924;-58
2023/03/11 11:51:51;;;;;;;;;;;;;;;;;;5114766;27;20442;-59
2023/03/11 11:54:17;;;;;;;;;;;;;;;;;;5107692;27;20010;-59
2023/03/11 11:56:43;;;;;;;;;;;;;;;;;;5106980;27;20023;-59
2023/03/11 11:59:09;;;;;;;;;;;;;;;;;;5108008;27;20018;-58
2023/03/11 12:01:35;;;;;;;;;;;;;;;;;;5105853;28;20393;-59
2023/03/11 12:04:01;;;;;;;;;;;;;;;;;;5089493;28;19936;-58
2023/03/11 12:06:27;;;;;;;;;;;;;;;;;;5107576;27;19920;-60
2023/03/11 12:08:53;;;;;;;;;;;;;;;;;;5118295;27;20116;-60
2023/03/11 12:11:19;;;;;;;;;;;;;;;;;;5107187;28;19969;-59
2023/03/11 12:13:45;;;;;;;;;;;;;;;;;;5117514;27;19919;-60
2023/03/11 12:16:11;;;;;;;;;;;;;;;;;;5106222;28;19931;-60
2023/03/11 12:18:38;;;;;;;;;;;;;;;;;;5106991;28;19927;-60
2023/03/11 12:21:05;;;;;;;;;;;;;;;;;;5114952;27;19969;-58
2023/03/11 12:23:31;;;;;;;;;;;;;;;;;;5107631;27;20543;-59
2023/03/11 12:25:57;;;;;;;;;;;;;;;;;;5106850;28;20342;-58
2023/03/11 12:28:23;;;;;;;;;;;;;;;;;;5106425;28;19924;-56
2023/03/11 12:30:49;;;;;;;;;;;;;;;;;;5106452;28;19939;-56
2023/03/11 12:33:15;;;;;;;;;;;;;;;;;;5117795;27;19928;-57
2023/03/11 12:35:41;;;;;;;;;;;;;;;;;;5106489;28;20723;-57
2023/03/11 12:38:07;;;;;;;;;;;;;;;;;;5107298;28;20402;-56
2023/03/11 12:40:33;;;;;;;;;;;;;;;;;;5123973;27;20285;-56
2023/03/11 12:43:00;;;;;;;;;;;;;;;;;;5107299;27;19931;-57
2023/03/11 12:45:26;;;;;;;;;;;;;;;;;;5113974;27;20274;-56
2023/03/11 12:47:52;;;;;;;;;;;;;;;;;;5106004;28;20403;-56
2023/03/11 12:50:18;;;;;;;;;;;;;;;;;;5105505;28;20285;-56
2023/03/11 12:52:44;;;;;;;;;;;;;;;;;;5107559;27;19928;-56
2023/03/11 12:55:10;;;;;;;;;;;;;;;;;;5110580;27;19965;-56
2023/03/11 12:57:36;;;;;;;;;;;;;;;;;;5107159;27;19981;-55
2023/03/11 13:00:08;;;;;;;;;;;;;;;;;;5105937;28;20289;-56
2023/03/11 13:02:34;;;;;;;;;;;;;;;;;;5103869;28;19924;-56
2023/03/11 13:05:00;;;;;;;;;;;;;;;;;;5106027;28;19923;-57
2023/03/11 13:07:26;;;;;;;;;;;;;;;;;;5106114;28;19924;-56
2023/03/11 13:09:52;;;;;;;;;;;;;;;;;;5106503;28;20032;-56
2023/03/11 13:12:18;;;;;;;;;;;;;;;;;;5105344;28;20262;-56
2023/03/11 13:14:44;;;;;;;;;;;;;;;;;;5105849;28;19928;-57
2023/03/11 13:17:10;;;;;;;;;;;;;;;;;;5104798;28;19974;-56
2023/03/11 13:19:36;;;;;;;;;;;;;;;;;;5105773;28;19963;-56
2023/03/11 13:22:02;;;;;;;;;;;;;;;;;;5106006;28;19946;-56
2023/03/11 13:24:28;;;;;;;;;;;;;;;;;;5105930;28;20345;-56
2023/03/11 13:26:54;;;;;;;;;;;;;;;;;;5106197;28;19920;-51
2023/03/11 13:29:21;;;;;;;;;;;;;;;;;;5108175;28;19979;-56
2023/03/11 13:31:47;;;;;;;;;;;;;;;;;;5110487;28;19931;-56
2023/03/11 13:34:13;;;;;;;;;;;;;;;;;;5105348;28;19923;-56
2023/03/11 13:36:39;;;;;;;;;;;;;;;;;;5087777;28;19945;-56
2023/03/11 13:39:07;;;;;;;;;;;;;;;;;;5116386;27;19998;-56
2023/03/11 13:41:33;;;;;;;;;;;;;;;;;;5130220;27;19950;-56
2023/03/11 13:44:00;;;;;;;;;;;;;;;;;;5126487;27;20266;-56
2023/03/11 13:46:26;;;;;;;;;;;;;;;;;;5127791;27;19923;-56
2023/03/11 13:48:52;;;;;;;;;;;;;;;;;;5116416;27;19961;-56
2023/03/11 13:51:18;;;;;;;;;;;;;;;;;;5128573;27;19923;-56
2023/03/11 13:53:44;;;;;;;;;;;;;;;;;;5130415;27;19966;-55
2023/03/11 13:56:10;;;;;;;;;;;;;;;;;;5130139;27;19970;-56
2023/03/11 13:58:36;;;;;;;;;;;;;;;;;;5129975;27;19923;-56
2023/03/11 14:01:02;;;;;;;;;;;;;;;;;;5129503;27;19924;-56
2023/03/11 14:03:28;;;;;;;;;;;;;;;;;;5127527;27;19923;-55
2023/03/11 14:05:54;;;;;;;;;;;;;;;;;;5123636;27;19924;-57
2023/03/11 14:08:20;;;;;;;;;;;;;;;;;;5124708;27;19923;-57
2023/03/11 14:10:46;;;;;;;;;;;;;;;;;;5125433;27;19923;-57
2023/03/11 14:13:12;;;;;;;;;;;;;;;;;;5119508;27;20007;-57
2023/03/11 14:15:39;;;;;;;;;;;;;;;;;;5129192;27;20372;-57
2023/03/11 14:18:05;;;;;;;;;;;;;;;;;;5097904;27;20639;-57
2023/03/11 14:20:32;;;;;;;;;;;;;;;;;;5122647;27;20014;-57
2023/03/11 14:22:58;;;;;;;;;;;;;;;;;;5127593;27;19931;-57
2023/03/11 14:25:24;;;;;;;;;;;;;;;;;;5130051;27;20404;-57
2023/03/11 14:27:50;;;;;;;;;;;;;;;;;;5129936;27;19919;-57
2023/03/11 14:30:16;;;;;;;;;;;;;;;;;;5128326;27;20388;-55
2023/03/11 14:32:42;;;;;;;;;;;;;;;;;;5128575;27;19924;-57
2023/03/11 14:35:08;;;;;;;;;;;;;;;;;;5127617;27;19923;-57
2023/03/11 14:37:34;;;;;;;;;;;;;;;;;;5110041;27;19932;-57
2023/03/11 14:40:00;;;;;;;;;;;;;;;;;;5125759;27;19920;-57
2023/03/11 14:42:26;;;;;;;;;;;;;;;;;;5114299;27;19924;-57
2023/03/11 14:44:53;;;;;;;;;;;;;;;;;;5138150;27;19923;-57
2023/03/11 14:47:19;;;;;;;;;;;;;;;;;;5138031;27;19947;-57
2023/03/11 14:49:45;;;;;;;;;;;;;;;;;;5118843;27;20258;-57
2023/03/11 14:52:11;;;;;;;;;;;;;;;;;;5142747;27;19949;-58
2023/03/11 14:54:37;;;;;;;;;;;;;;;;;;5140570;27;19949;-58
2023/03/11 14:57:03;;;;;;;;;;;;;;;;;;5139086;27;19934;-58
2023/03/11 14:59:31;;;;;;;;;;;;;;;;;;5142279;27;19923;-59
2023/03/11 15:01:57;;;;;;;;;;;;;;;;;;5114608;27;19949;-59
2023/03/11 15:04:25;;;;;;;;;;;;;;;;;;5138193;27;19924;-58
2023/03/11 15:06:51;;;;;;;;;;;;;;;;;;5139432;27;19943;-58
2023/03/11 15:09:17;;;;;;;;;;;;;;;;;;5132128;27;19923;-58
2023/03/11 15:11:43;;;;;;;;;;;;;;;;;;5145745;27;19976;-56
2023/03/11 15:14:09;;;;;;;;;;;;;;;;;;5134275;27;19943;-55
2023/03/11 15:16:35;;;;;;;;;;;;;;;;;;5135239;27;20337;-56
2023/03/11 15:19:01;;;;;;;;;;;;;;;;;;5142433;27;20665;-56
2023/03/11 15:21:28;;;;;;;;;;;;;;;;;;5133761;27;19991;-55
2023/03/11 15:23:54;;;;;;;;;;;;;;;;;;5144500;27;19923;-55
2023/03/11 15:26:20;;;;;;;;;;;;;;;;;;5122716;27;19931;-55
2023/03/11 15:28:46;;;;;;;;;;;;;;;;;;5144628;27;19919;-55
2023/03/11 15:31:12;;;;;;;;;;;;;;;;;;5133439;27;19942;-56
2023/03/11 15:33:38;;;;;;;;;;;;;;;;;;5140552;27;20376;-55
2023/03/11 15:36:04;;;;;;;;;;;;;;;;;;5135838;27;20396;-55
2023/03/11 15:38:30;;;;;;;;;;;;;;;;;;5139434;27;19929;-56
2023/03/11 15:40:56;;;;;;;;;;;;;;;;;;5143252;27;19919;-56
2023/03/11 15:43:23;;;;;;;;;;;;;;;;;;5142278;27;19931;-56
2023/03/11 15:45:49;;;;;;;;;;;;;;;;;;5142754;27;19923;-56
2023/03/11 15:48:15;;;;;;;;;;;;;;;;;;5141266;27;19927;-56
2023/03/11 15:50:41;;;;;;;;;;;;;;;;;;5138335;27;19966;-56
2023/03/11 15:53:07;;;;;;;;;;;;;;;;;;5138815;27;19930;-56
2023/03/11 15:55:33;;;;;;;;;;;;;;;;;;5131310;27;20307;-56
2023/03/11 15:57:59;;;;;;;;;;;;;;;;;;5142143;27;19962;-56
2023/03/11 16:00:25;;;;;;;;;;;;;;;;;;5123210;27;20408;-55
2023/03/11 16:02:53;;;;;;;;;;;;;;;;;;5140833;27;19942;-56
2023/03/11 16:05:19;;;;;;;;;;;;;;;;;;5139739;27;19931;-56
2023/03/11 16:07:45;;;;;;;;;;;;;;;;;;5138867;27;20292;-56
2023/03/11 16:10:11;;;;;;;;;;;;;;;;;;5139794;27;19923;-56
2023/03/11 16:12:37;;;;;;;;;;;;;;;;;;5132537;27;20577;-57
2023/03/11 16:15:03;;;;;;;;;;;;;;;;;;5139692;27;19923;-55
2023/03/11 16:17:29;;;;;;;;;;;;;;;;;;5127178;27;19923;-56
2023/03/11 16:19:55;;;;;;;;;;;;;;;;;;5142326;27;19973;-56
2023/03/11 16:22:21;;;;;;;;;;;;;;;;;;5128971;27;19927;-56
2023/03/11 16:24:47;;;;;;;;;;;;;;;;;;5138748;27;19927;-56
2023/03/11 16:27:13;;;;;;;;;;;;;;;;;;5138421;27;19931;-56
2023/03/11 16:29:40;;;;;;;;;;;;;;;;;;5132251;27;20006;-56
2023/03/11 16:32:06;;;;;;;;;;;;;;;;;;5138296;27;20293;-56
2023/03/11 16:34:32;;;;;;;;;;;;;;;;;;5128133;27;20069;-56
2023/03/11 16:36:58;;;;;;;;;;;;;;;;;;5139403;27;20444;-56
2023/03/11 16:39:24;;;;;;;;;;;;;;;;;;5147012;27;20388;-56
2023/03/11 16:41:50;;;;;;;;;;;;;;;;;;5142069;27;19926;-56
2023/03/11 16:44:16;;;;;;;;;;;;;;;;;;5146037;27;19930;-56
2023/03/11 16:46:42;;;;;;;;;;;;;;;;;;5140469;27;20393;-56
2023/03/11 16:49:08;;;;;;;;;;;;;;;;;;5141130;27;19923;-56
2023/03/11 16:51:34;;;;;;;;;;;;;;;;;;5139441;27;19923;-56